createdAt,value
2022-08-03T00:00:26.626Z,24.18
2022-08-03T00:02:54.046Z,24.14
2022-08-03T00:05:20.907Z,24.12
2022-08-03T00:07:48.428Z,24.12
2022-08-03T00:10:17.321Z,24.00
2022-08-03T00:12:44.085Z,23.98
2022-08-03T00:15:15.097Z,23.91
2022-08-03T00:17:53.515Z,23.76
2022-08-03T00:20:23.901Z,23.47
2022-08-03T00:22:51.551Z,23.64
2022-08-03T00:25:18.399Z,23.54
2022-08-03T00:27:45.479Z,23.64
2022-08-03T00:30:15.413Z,23.55
2022-08-03T00:32:45.402Z,23.53
2022-08-03T00:35:18.254Z,23.56
2022-08-03T00:37:59.461Z,23.47
2022-08-03T00:40:26.344Z,23.49
2022-08-03T00:42:56.904Z,23.69
2022-08-03T00:45:27.828Z,23.74
2022-08-03T00:47:56.136Z,23.63
2022-08-03T00:50:23.402Z,23.56
2022-08-03T00:52:50.750Z,23.60
2022-08-03T00:55:17.907Z,23.44
2022-08-03T00:57:44.768Z,23.32
2022-08-03T01:00:12.911Z,22.91
2022-08-03T01:02:39.793Z,23.33
2022-08-03T01:05:07.406Z,23.37
2022-08-03T01:07:40.401Z,23.53
2022-08-03T01:10:10.474Z,23.33
2022-08-03T01:12:44.063Z,23.29
2022-08-03T01:15:16.214Z,23.26
2022-08-03T01:17:44.027Z,23.43
2022-08-03T01:20:15.026Z,23.43
2022-08-03T01:23:01.023Z,23.21
2022-08-03T01:25:39.341Z,23.16
2022-08-03T01:28:22.311Z,23.20
2022-08-03T01:30:50.519Z,22.98
2022-08-03T01:33:19.746Z,23.11
2022-08-03T01:36:01.112Z,23.26
2022-08-03T01:38:36.703Z,23.12
2022-08-03T01:41:05.151Z,23.15
2022-08-03T01:44:27.357Z,23.15
2022-08-03T01:46:20.870Z,22.90
2022-08-03T01:48:48.959Z,23.05
2022-08-03T01:51:17.365Z,23.05
2022-08-03T01:53:44.934Z,22.92
2022-08-03T01:56:12.910Z,23.09
2022-08-03T01:58:40.409Z,22.91
2022-08-03T02:01:08.432Z,23.02
2022-08-03T02:03:59.867Z,22.96
2022-08-03T02:06:59.909Z,22.74
2022-08-03T02:09:16.638Z,22.69
2022-08-03T02:11:44.179Z,22.64
2022-08-03T02:14:12.463Z,22.63
2022-08-03T02:16:40.723Z,22.62
2022-08-03T02:19:08.243Z,22.61
2022-08-03T02:21:57.431Z,22.57
2022-08-03T02:24:24.695Z,22.68
2022-08-03T02:35:42.881Z,22.59
2022-08-03T02:38:11.722Z,22.44
2022-08-03T02:40:39.326Z,22.43
2022-08-03T02:43:08.485Z,22.44
2022-08-03T02:45:36.998Z,22.65
2022-08-03T02:48:05.511Z,22.54
2022-08-03T02:50:34.383Z,22.59
2022-08-03T02:53:02.398Z,22.54
2022-08-03T02:55:29.899Z,22.52
2022-08-03T02:57:57.385Z,22.56
2022-08-03T03:00:31.007Z,22.54
2022-08-03T03:03:00.302Z,22.36
2022-08-03T03:05:55.240Z,22.22
2022-08-03T03:08:18.850Z,22.29
2022-08-03T03:10:48.306Z,22.28
2022-08-03T03:13:15.541Z,22.18
2022-08-03T03:15:42.405Z,22.15
2022-08-03T03:18:10.134Z,22.13
2022-08-03T03:20:37.543Z,22.19
2022-08-03T03:23:04.433Z,22.03
2022-08-03T03:25:32.394Z,22.23
2022-08-03T03:28:02.507Z,22.12
2022-08-03T03:30:29.969Z,22.02
2022-08-03T03:32:57.739Z,21.93
2022-08-03T03:35:24.852Z,21.91
2022-08-03T03:37:52.022Z,22.05
2022-08-03T03:40:19.535Z,21.95
2022-08-03T03:42:46.546Z,21.94
2022-08-03T03:45:13.292Z,22.03
2022-08-03T03:47:40.049Z,22.01
2022-08-03T03:50:07.711Z,21.88
2022-08-03T03:52:34.592Z,21.76
2022-08-03T03:55:01.864Z,21.83
2022-08-03T03:57:29.456Z,21.92
2022-08-03T03:59:56.320Z,22.08
2022-08-03T04:02:23.963Z,21.75
2022-08-03T04:05:10.031Z,21.97
2022-08-03T04:08:05.675Z,21.92
2022-08-03T04:10:51.562Z,21.99
2022-08-03T04:13:18.252Z,22.05
2022-08-03T04:15:45.209Z,22.00
2022-08-03T04:18:12.696Z,21.90
2022-08-03T04:20:39.392Z,22.23
2022-08-03T04:23:13.551Z,22.21
2022-08-03T04:25:42.703Z,22.26
2022-08-03T04:28:30.871Z,22.13
2022-08-03T04:30:56.905Z,22.25
2022-08-03T04:33:25.020Z,22.29
2022-08-03T04:36:02.818Z,22.51
2022-08-03T04:38:37.075Z,22.57
2022-08-03T04:41:03.889Z,22.62
2022-08-03T04:43:30.934Z,22.71
2022-08-03T04:45:57.694Z,22.87
2022-08-03T04:48:25.023Z,22.79
2022-08-03T04:50:51.987Z,23.00
2022-08-03T04:53:19.618Z,23.11
2022-08-03T04:55:46.439Z,23.27
2022-08-03T04:58:13.803Z,23.28
2022-08-03T05:00:40.802Z,23.31
2022-08-03T05:03:20.021Z,23.46
2022-08-03T05:06:01.902Z,23.42
2022-08-03T05:08:36.283Z,23.54
2022-08-03T05:11:13.956Z,23.71
2022-08-03T05:13:40.873Z,23.83
2022-08-03T05:16:07.835Z,23.84
2022-08-03T05:18:35.994Z,23.88
2022-08-03T05:21:04.987Z,23.85
2022-08-03T05:23:31.739Z,23.96
2022-08-03T05:25:58.741Z,24.07
2022-08-03T05:28:25.428Z,24.19
2022-08-03T05:30:52.127Z,24.21
2022-08-03T05:33:19.170Z,24.31
2022-08-03T05:36:00.745Z,24.42
2022-08-03T05:38:34.879Z,24.45
2022-08-03T05:41:20.578Z,24.10
2022-08-03T05:43:49.698Z,24.46
2022-08-03T05:46:16.489Z,24.75
2022-08-03T05:48:43.665Z,24.84
2022-08-03T05:51:11.885Z,24.84
2022-08-03T05:53:39.926Z,24.92
2022-08-03T05:56:13.731Z,24.97
2022-08-03T05:58:42.260Z,24.92
2022-08-03T06:01:09.066Z,24.83
2022-08-03T06:03:36.114Z,25.06
2022-08-03T06:06:02.965Z,25.06
2022-08-03T06:08:29.892Z,25.26
2022-08-03T06:10:56.843Z,25.02
2022-08-03T06:13:25.970Z,25.30
2022-08-03T06:15:52.657Z,25.22
2022-08-03T06:18:20.105Z,25.45
2022-08-03T06:20:47.196Z,25.58
2022-08-03T06:23:17.814Z,25.68
2022-08-03T06:25:45.194Z,25.86
2022-08-03T06:28:35.180Z,25.81
2022-08-03T06:31:02.903Z,26.14
2022-08-03T06:34:30.096Z,26.02
2022-08-03T06:36:17.299Z,26.33
2022-08-03T06:38:44.134Z,26.51
2022-08-03T06:41:10.934Z,26.85
2022-08-03T06:44:02.913Z,27.15
2022-08-03T06:46:24.802Z,27.34
2022-08-03T06:48:53.240Z,27.96
2022-08-03T06:51:20.037Z,28.18
2022-08-03T06:53:46.755Z,28.57
2022-08-03T06:56:13.712Z,28.78
2022-08-03T06:58:40.509Z,29.28
2022-08-03T07:01:07.282Z,29.55
2022-08-03T07:03:34.310Z,29.47
2022-08-03T07:06:02.288Z,29.77
2022-08-03T07:08:33.461Z,30.22
2022-08-03T07:11:01.710Z,30.41
2022-08-03T07:13:28.412Z,30.51
2022-08-03T07:15:56.412Z,30.58
2022-08-03T07:18:29.399Z,30.64
2022-08-03T07:20:57.492Z,31.10
2022-08-03T07:23:25.528Z,30.80
2022-08-03T07:25:53.323Z,31.18
2022-08-03T07:28:20.362Z,31.61
2022-08-03T07:30:47.607Z,31.26
2022-08-03T07:33:15.263Z,31.13
2022-08-03T07:35:42.105Z,31.37
2022-08-03T07:38:09.814Z,31.34
2022-08-03T07:40:36.680Z,31.58
2022-08-03T07:43:03.968Z,31.74
2022-08-03T07:45:31.392Z,32.13
2022-08-03T07:47:58.102Z,32.36
2022-08-03T07:50:25.781Z,32.33
2022-08-03T07:52:54.042Z,32.26
2022-08-03T07:55:21.613Z,32.32
2022-08-03T07:57:58.915Z,32.25
2022-08-03T08:00:26.317Z,32.55
2022-08-03T08:02:53.289Z,32.74
2022-08-03T08:05:20.592Z,32.88
2022-08-03T08:07:51.127Z,32.84
2022-08-03T08:10:18.871Z,32.99
2022-08-03T08:12:53.469Z,33.04
2022-08-03T08:15:24.958Z,33.34
2022-08-03T08:17:54.000Z,33.76
2022-08-03T08:20:27.035Z,33.77
2022-08-03T08:22:57.025Z,33.83
2022-08-03T08:25:25.095Z,34.15
2022-08-03T08:28:31.105Z,33.97
2022-08-03T08:30:40.412Z,34.07
2022-08-03T08:33:08.648Z,34.05
2022-08-03T08:35:37.915Z,34.01
2022-08-03T08:38:06.559Z,34.05
2022-08-03T08:40:33.866Z,34.44
2022-08-03T08:43:00.713Z,34.27
2022-08-03T08:45:28.360Z,34.55
2022-08-03T08:48:00.341Z,34.43
2022-08-03T08:50:28.869Z,33.87
2022-08-03T08:52:55.763Z,34.42
2022-08-03T08:55:23.398Z,34.48
2022-08-03T08:57:52.792Z,34.41
2022-08-03T09:00:19.916Z,34.71
2022-08-03T09:02:47.035Z,34.51
2022-08-03T09:05:14.810Z,34.80
2022-08-03T09:07:41.873Z,34.70
2022-08-03T09:10:12.921Z,34.70
2022-08-03T09:12:44.234Z,35.17
2022-08-03T09:15:17.583Z,35.21
2022-08-03T09:17:47.649Z,34.77
2022-08-03T09:20:18.126Z,34.79
2022-08-03T09:22:53.564Z,34.80
2022-08-03T09:25:24.960Z,35.09
2022-08-03T09:27:52.422Z,35.09
2022-08-03T09:30:34.549Z,34.87
2022-08-03T09:33:02.934Z,35.03
2022-08-03T09:35:53.517Z,35.39
2022-08-03T09:38:18.878Z,34.87
2022-08-03T09:40:46.192Z,34.53
2022-08-03T09:43:13.941Z,35.17
2022-08-03T09:45:41.050Z,35.68
2022-08-03T09:48:21.155Z,35.40
2022-08-03T09:50:58.487Z,35.50
2022-08-03T09:53:58.620Z,35.38
2022-08-03T09:56:43.049Z,36.03
2022-08-03T09:59:14.119Z,35.83
2022-08-03T10:01:41.925Z,35.16
2022-08-03T10:04:11.745Z,35.00
2022-08-03T10:06:39.206Z,35.77
2022-08-03T10:09:10.375Z,35.63
2022-08-03T10:11:41.802Z,35.25
2022-08-03T10:14:10.096Z,35.25
2022-08-03T10:16:38.705Z,35.37
2022-08-03T10:19:06.436Z,34.75
2022-08-03T10:21:36.582Z,35.30
2022-08-03T10:24:05.111Z,35.22
2022-08-03T10:26:33.533Z,35.93
2022-08-03T10:29:01.467Z,35.97
2022-08-03T10:31:31.637Z,36.02
2022-08-03T10:33:58.357Z,36.03
2022-08-03T10:36:25.645Z,36.14
2022-08-03T10:38:53.694Z,35.56
2022-08-03T10:41:21.308Z,35.49
2022-08-03T10:43:50.767Z,36.24
2022-08-03T10:46:18.218Z,35.54
2022-08-03T10:48:45.252Z,35.61
2022-08-03T10:51:12.121Z,35.03
2022-08-03T10:53:40.505Z,35.79
2022-08-03T10:56:49.859Z,36.05
2022-08-03T10:59:27.717Z,36.40
2022-08-03T11:01:58.697Z,35.96
2022-08-03T11:04:30.015Z,35.44
2022-08-03T11:07:16.127Z,35.00
2022-08-03T11:09:49.906Z,34.61
2022-08-03T11:12:30.393Z,34.97
2022-08-03T11:15:04.426Z,35.37
2022-08-03T11:17:31.881Z,35.84
2022-08-03T11:19:58.811Z,34.97
2022-08-03T11:22:28.259Z,34.84
2022-08-03T11:24:56.365Z,35.37
2022-08-03T11:27:23.841Z,35.94
2022-08-03T11:30:07.297Z,36.04
2022-08-03T11:32:37.247Z,36.16
2022-08-03T11:35:11.400Z,36.54
2022-08-03T11:38:03.325Z,36.33
2022-08-03T11:40:35.655Z,35.94
2022-08-03T11:43:02.973Z,35.51
2022-08-03T11:45:29.812Z,36.12
2022-08-03T11:48:00.753Z,36.06
2022-08-03T11:50:27.876Z,35.49
2022-08-03T11:52:54.937Z,35.63
2022-08-03T11:55:22.355Z,35.23
2022-08-03T11:59:12.893Z,34.64
2022-08-03T12:00:36.938Z,34.64
2022-08-03T12:03:04.216Z,34.84
2022-08-03T12:05:34.014Z,34.71
2022-08-03T12:08:03.555Z,35.15
2022-08-03T12:10:33.521Z,35.63
2022-08-03T12:13:01.680Z,35.64
2022-08-03T12:15:29.297Z,35.50
2022-08-03T12:17:58.032Z,35.72
2022-08-03T12:20:34.754Z,35.87
2022-08-03T12:23:03.295Z,35.73
2022-08-03T12:25:39.616Z,34.70
2022-08-03T12:28:37.194Z,34.39
2022-08-03T12:31:01.029Z,34.24
2022-08-03T12:33:29.165Z,34.11
2022-08-03T12:36:07.207Z,34.24
2022-08-03T12:38:36.432Z,33.93
2022-08-03T12:41:08.563Z,34.22
2022-08-03T12:43:39.571Z,34.37
2022-08-03T12:46:10.643Z,34.57
2022-08-03T12:48:37.879Z,34.36
2022-08-03T12:51:08.522Z,34.10
2022-08-03T12:53:35.545Z,34.14
2022-08-03T12:56:05.926Z,34.49
2022-08-03T12:58:35.795Z,35.22
2022-08-03T13:01:09.856Z,35.16
2022-08-03T13:03:42.057Z,35.15
2022-08-03T13:06:14.222Z,35.29
2022-08-03T13:08:41.379Z,35.27
2022-08-03T13:11:53.568Z,35.26
2022-08-03T13:14:19.797Z,35.26
2022-08-03T13:16:48.035Z,34.95
2022-08-03T13:19:16.145Z,35.12
2022-08-03T13:21:53.739Z,34.91
2022-08-03T13:24:31.892Z,35.02
2022-08-03T13:26:59.338Z,35.47
2022-08-03T13:29:26.108Z,35.74
2022-08-03T13:31:53.112Z,36.01
2022-08-03T13:34:23.454Z,35.89
2022-08-03T13:37:09.394Z,35.82
2022-08-03T13:39:57.457Z,35.71
2022-08-03T13:42:30.966Z,36.08
2022-08-03T13:44:58.667Z,36.15
2022-08-03T13:47:25.601Z,35.93
2022-08-03T13:50:00.156Z,36.02
2022-08-03T13:52:31.485Z,36.13
2022-08-03T13:54:58.823Z,36.04
2022-08-03T13:58:02.774Z,35.98
2022-08-03T14:00:12.860Z,35.97
2022-08-03T14:02:47.889Z,36.06
2022-08-03T14:05:14.658Z,35.82
2022-08-03T14:07:41.369Z,35.70
2022-08-03T14:10:08.853Z,35.67
2022-08-03T14:12:36.412Z,35.68
2022-08-03T14:15:04.336Z,35.93
2022-08-03T14:17:42.284Z,35.74
2022-08-03T14:20:36.933Z,35.76
2022-08-03T14:23:04.169Z,35.89
2022-08-03T14:25:43.172Z,35.70
2022-08-03T14:28:17.382Z,35.23
2022-08-03T14:30:45.122Z,35.04
2022-08-03T14:33:11.920Z,34.96
2022-08-03T14:35:39.186Z,35.29
2022-08-03T14:38:06.703Z,35.12
2022-08-03T14:40:36.183Z,35.01
2022-08-03T14:43:06.235Z,34.82
2022-08-03T14:45:34.401Z,34.75
2022-08-03T14:50:29.392Z,34.72
2022-08-03T14:50:55.325Z,34.32
2022-08-03T14:53:23.005Z,34.36
2022-08-03T14:55:51.915Z,34.28
2022-08-03T14:58:20.954Z,34.08
2022-08-03T15:00:49.056Z,33.86
2022-08-03T15:03:17.265Z,33.79
2022-08-03T15:05:44.919Z,33.85
2022-08-03T15:08:11.966Z,33.67
2022-08-03T15:10:43.821Z,33.74
2022-08-03T15:13:13.052Z,33.70
2022-08-03T15:15:39.968Z,33.64
2022-08-03T15:18:06.872Z,33.77
2022-08-03T15:20:43.983Z,33.75
2022-08-03T15:23:12.374Z,33.54
2022-08-03T15:26:28.329Z,33.57
2022-08-03T15:28:26.175Z,33.57
2022-08-03T15:30:54.376Z,33.60
2022-08-03T15:33:21.346Z,33.68
2022-08-03T15:35:49.923Z,33.69
2022-08-03T15:38:17.386Z,33.70
2022-08-03T15:40:44.150Z,33.55
2022-08-03T15:43:10.849Z,33.46
2022-08-03T15:45:37.980Z,33.58
2022-08-03T15:48:05.489Z,33.31
2022-08-03T15:50:32.195Z,33.28
2022-08-03T15:52:59.162Z,33.37
2022-08-03T15:55:25.941Z,33.38
2022-08-03T15:59:04.533Z,33.70
2022-08-03T16:00:40.396Z,33.65
2022-08-03T16:03:07.556Z,33.71
2022-08-03T16:05:34.339Z,33.54
2022-08-03T16:08:03.752Z,33.55
2022-08-03T16:10:31.399Z,33.60
2022-08-03T16:13:00.912Z,33.59
2022-08-03T16:15:27.696Z,33.72
2022-08-03T16:17:55.733Z,33.49
2022-08-03T16:20:29.222Z,33.68
2022-08-03T16:23:08.482Z,33.56
2022-08-03T16:25:41.886Z,33.62
2022-08-03T16:28:14.006Z,33.53
2022-08-03T16:30:44.228Z,33.69
2022-08-03T16:33:17.319Z,33.75
2022-08-03T16:35:45.479Z,33.51
2022-08-03T16:38:18.214Z,33.54
2022-08-03T16:40:47.162Z,33.53
2022-08-03T16:43:17.857Z,33.52
2022-08-03T16:45:46.576Z,33.60
2022-08-03T16:48:14.011Z,33.46
2022-08-03T16:50:41.790Z,33.18
2022-08-03T16:53:09.599Z,33.22
2022-08-03T16:55:43.216Z,33.33
2022-08-03T16:58:24.317Z,33.28
2022-08-03T17:01:01.041Z,33.14
2022-08-03T17:03:42.738Z,33.18
2022-08-03T17:06:26.501Z,33.01
2022-08-03T17:09:02.166Z,33.01
2022-08-03T17:11:32.949Z,33.03
2022-08-03T17:13:59.810Z,32.94
2022-08-03T17:16:26.884Z,33.07
2022-08-03T17:19:02.128Z,33.03
2022-08-03T17:21:39.529Z,32.92
2022-08-03T17:24:12.619Z,32.82
2022-08-03T17:26:46.222Z,32.79
2022-08-03T17:29:23.118Z,32.73
2022-08-03T17:31:52.192Z,32.69
2022-08-03T17:34:19.958Z,32.68
2022-08-03T17:37:03.787Z,32.67
2022-08-03T17:39:57.033Z,32.63
2022-08-03T17:42:38.790Z,32.61
2022-08-03T17:45:06.773Z,32.58
2022-08-03T17:47:42.714Z,32.50
2022-08-03T17:50:24.047Z,32.44
2022-08-03T17:52:52.117Z,32.46
2022-08-03T17:58:12.177Z,32.34
2022-08-03T18:01:01.706Z,32.21
2022-08-03T18:03:58.679Z,32.14
2022-08-03T18:06:28.989Z,32.05
2022-08-03T18:08:56.516Z,31.95
2022-08-03T18:11:41.858Z,31.71
2022-08-03T18:14:17.345Z,31.79
2022-08-03T18:16:44.906Z,31.65
2022-08-03T18:19:15.487Z,31.43
2022-08-03T18:22:03.657Z,31.23
2022-08-03T18:24:33.320Z,31.31
2022-08-03T18:27:02.489Z,31.14
2022-08-03T18:29:30.470Z,31.02
2022-08-03T18:32:02.265Z,30.94
2022-08-03T18:34:33.297Z,30.98
2022-08-03T18:37:07.380Z,30.92
2022-08-03T18:39:49.661Z,30.72
2022-08-03T18:42:25.613Z,30.68
2022-08-03T18:44:56.223Z,30.54
2022-08-03T18:47:52.282Z,30.36
2022-08-03T18:50:49.770Z,30.36
2022-08-03T18:53:19.716Z,30.24
2022-08-03T18:56:01.603Z,30.27
2022-08-03T18:58:40.396Z,30.23
2022-08-03T19:01:15.247Z,30.15
2022-08-03T19:04:06.518Z,29.83
2022-08-03T19:06:33.566Z,29.75
2022-08-03T19:09:04.620Z,29.66
2022-08-03T19:12:14.560Z,29.75
2022-08-03T19:14:28.817Z,29.82
2022-08-03T19:16:59.666Z,29.77
2022-08-03T19:19:28.648Z,29.70
2022-08-03T19:22:11.891Z,29.68
2022-08-03T19:24:43.651Z,29.69
2022-08-03T19:27:10.835Z,29.70
2022-08-03T19:29:59.387Z,29.69
2022-08-03T19:32:26.914Z,29.71
2022-08-03T19:34:53.843Z,29.54
2022-08-03T19:37:23.388Z,29.41
2022-08-03T19:39:56.514Z,29.52
2022-08-03T19:42:34.139Z,29.60
2022-08-03T19:45:11.344Z,29.47
2022-08-03T19:47:45.645Z,29.48
2022-08-03T19:50:14.107Z,29.39
2022-08-03T19:52:44.125Z,29.22
2022-08-03T19:55:12.105Z,29.23
2022-08-03T19:57:41.120Z,29.18
2022-08-03T20:00:11.949Z,29.12
2022-08-03T20:02:40.046Z,29.18
2022-08-03T20:05:14.958Z,29.16
2022-08-03T20:07:47.720Z,29.16
2022-08-03T20:10:16.181Z,29.02
2022-08-03T20:12:44.436Z,28.96
2022-08-03T20:15:11.779Z,29.02
2022-08-03T20:17:54.384Z,28.94
2022-08-03T20:20:28.614Z,28.93
2022-08-03T20:22:57.592Z,28.66
2022-08-03T20:25:38.027Z,28.72
2022-08-03T20:28:13.446Z,28.56
2022-08-03T20:30:43.308Z,28.59
2022-08-03T20:33:10.305Z,28.30
2022-08-03T20:35:37.042Z,28.38
2022-08-03T20:38:04.167Z,28.27
2022-08-03T20:40:31.717Z,28.36
2022-08-03T20:42:59.786Z,28.11
2022-08-03T20:46:01.044Z,28.11
2022-08-03T20:51:05.101Z,28.06
2022-08-03T20:53:56.975Z,27.83
2022-08-03T20:56:29.717Z,27.93
2022-08-03T20:58:56.477Z,27.86
2022-08-03T21:01:27.934Z,27.80
2022-08-03T21:04:07.450Z,27.79
2022-08-03T21:06:38.782Z,27.66
2022-08-03T21:09:07.984Z,27.71
2022-08-03T21:11:42.179Z,27.69
2022-08-03T21:12:55.766Z,32.46
2022-08-03T21:13:07.506Z,28.05
2022-08-03T21:14:16.371Z,27.57
2022-08-03T21:16:43.860Z,27.35
2022-08-03T21:19:10.924Z,27.48
2022-08-03T21:21:38.651Z,27.54
2022-08-03T21:24:05.845Z,27.63
2022-08-03T21:26:33.873Z,27.60
2022-08-03T21:29:02.379Z,27.42
2022-08-03T21:31:29.155Z,27.42
2022-08-03T21:33:56.941Z,27.46
2022-08-03T21:36:24.625Z,27.48
2022-08-03T21:38:56.666Z,27.46
2022-08-03T21:41:27.943Z,27.48
2022-08-03T21:43:54.717Z,27.32
2022-08-03T21:46:21.466Z,27.40
2022-08-03T21:48:48.742Z,27.41
2022-08-03T21:51:16.130Z,27.35
2022-08-03T21:54:02.913Z,27.20
2022-08-03T21:56:31.577Z,27.08
2022-08-03T21:59:05.081Z,27.10
2022-08-03T22:01:35.415Z,26.98
2022-08-03T22:04:05.098Z,26.77
2022-08-03T22:06:33.714Z,26.77
2022-08-03T22:09:00.518Z,26.58
2022-08-03T22:11:27.525Z,26.72
2022-08-03T22:13:54.455Z,26.54
2022-08-03T22:16:21.156Z,26.61
2022-08-03T22:18:48.135Z,26.52
2022-08-03T22:21:15.831Z,26.32
2022-08-03T22:23:47.173Z,26.30
2022-08-03T22:26:17.990Z,26.29
2022-08-03T22:29:01.852Z,26.32
2022-08-03T22:31:57.018Z,26.34
2022-08-03T22:34:15.679Z,26.17
2022-08-03T22:36:43.153Z,26.14
2022-08-03T22:39:09.953Z,26.09
2022-08-03T22:41:37.078Z,26.15
2022-08-03T22:44:04.728Z,25.95
2022-08-03T22:46:32.350Z,25.98
2022-08-03T22:48:59.162Z,25.95
2022-08-03T22:51:26.145Z,26.01
2022-08-03T22:53:52.858Z,26.10
2022-08-03T22:56:20.611Z,25.96
2022-08-03T22:58:47.675Z,25.92
2022-08-03T23:01:14.498Z,26.05
2022-08-03T23:04:00.382Z,25.90
2022-08-03T23:06:31.796Z,25.63
2022-08-03T23:08:58.538Z,25.71
2022-08-03T23:11:26.311Z,25.73
2022-08-03T23:13:54.180Z,25.63
2022-08-03T23:16:28.722Z,25.62
2022-08-03T23:18:58.859Z,25.49
2022-08-03T23:21:51.250Z,25.36
2022-08-03T23:24:29.836Z,25.52
2022-08-03T23:26:57.983Z,25.48
2022-08-03T23:29:25.123Z,25.49
2022-08-03T23:31:51.898Z,25.33
2022-08-03T23:34:37.787Z,25.22
2022-08-03T23:37:04.777Z,25.16
2022-08-03T23:39:35.222Z,25.28
2022-08-03T23:42:03.030Z,25.24
2022-08-03T23:44:31.347Z,25.02
2022-08-03T23:46:58.410Z,25.08
2022-08-03T23:49:25.334Z,24.99
2022-08-03T23:51:53.198Z,25.09
2022-08-03T23:54:27.034Z,25.05
2022-08-03T23:56:55.381Z,25.16
2022-08-03T23:59:22.073Z,24.99
